Archival Weather

Tokyo Intl

Tokyo Intl, Japan (RJTT)

Report from: Friday, June 24, 2022 7:30 PM JST
Current time: Tuesday, August 16, 2022 10:08 AM JST

Current weather
Weather history
Weather forecast

Temperature28.0°C (82.4°F)
Heat index31.4°C (88.5°F)
Dew point23.0°C (73.4°F)
Winds 19 kts (9.8 m/s, 21.9 mph) South-Southwest (210°)
Visibility6.2 mi. (10 km)
Clouds Ceiling: Broken clouds 0 ft. (0 m)
Few clouds 2,000 ft. (610 m)
Altimeter29.62 in.Hg (1003 mB)
Relative humidity74 %
Density altitude2,219 ft. (676 m)
Remarks No significant changes expected in the next two hours
Flight conditions Low Instrument Meteorological Conditions
Raw dataRJTT 241030Z 21019KT 9999 FEW020 BKN/// 28/23 Q1003 NOSIG
An error has occurred. This application may no longer respond until reloaded. Reload 🗙